Time,TemperatureF,DewpointF,PressureIn,WindDirection,WindDirectionDegrees,WindSpeedMPH,WindSpeedGustMPH,Humidity,HourlyPrecipIn,Conditions,Clouds,dailyrainin,SoftwareType,DateUTC
2013-07-12 04:25:00,63.8,59.9,29.97,NNE,12,0.0,0.0,87,0.00,CLR,,0.00,WeatherDisplay:10.37,2013-07-12 09:25:00,
2013-07-12 04:26:00,63.8,59.9,29.97,NNE,12,0.0,0.0,87,0.00,CLR,,0.00,WeatherDisplay:10.37,2013-07-12 09:26:00,
2013-07-12 04:31:00,63.8,59.9,29.97,NNE,12,0.0,0.0,87,0.00,CLR,,0.00,WeatherDisplay:10.37,2013-07-12 09:31:00,
2013-07-12 04:36:00,63.7,59.8,29.97,NNE,12,0.0,0.0,87,0.00,CLR,,0.00,WeatherDisplay:10.37,2013-07-12 09:36:00,
2013-07-12 04:41:00,63.6,59.7,29.97,NNE,12,0.0,0.0,87,0.00,CLR,,0.00,WeatherDisplay:10.37,2013-07-12 09:41:00,
2013-07-12 04:46:00,63.5,59.6,29.97,NNE,12,0.0,0.0,87,0.00,CLR,,0.00,WeatherDisplay:10.37,2013-07-12 09:46:00,
2013-07-12 04:51:00,63.4,59.5,29.97,NNE,12,0.0,0.0,87,0.00,CLR,,0.00,WeatherDisplay:10.37,2013-07-12 09:51:00,
2013-07-12 04:56:00,63.4,59.5,29.97,NNE,12,0.0,0.0,87,0.00,CLR,,0.00,WeatherDisplay:10.37,2013-07-12 09:56:00,
2013-07-12 05:01:00,63.3,59.4,29.97,NNE,12,0.0,0.0,87,0.00,CLR,,0.00,WeatherDisplay:10.37,2013-07-12 10:01:00,
2013-07-12 05:06:00,63.2,59.3,29.98,NNE,12,0.0,0.0,87,0.00,CLR,,0.00,WeatherDisplay:10.37,2013-07-12 10:06:00,
2013-07-12 05:11:00,63.2,59.6,29.98,NNE,12,0.0,0.0,88,0.00,CLR,,0.00,WeatherDisplay:10.37,2013-07-12 10:11:00,
2013-07-12 05:16:00,63.2,59.6,29.98,NNE,12,0.0,0.0,88,0.00,CLR,,0.00,WeatherDisplay:10.37,2013-07-12 10:16:00,
2013-07-12 05:21:00,63.1,59.5,29.98,NNE,12,0.0,0.0,88,0.00,CLR,,0.00,WeatherDisplay:10.37,2013-07-12 10:21:00,
2013-07-12 05:26:00,63.1,59.5,29.98,NNE,12,0.0,0.0,88,0.00,CLR,,0.00,WeatherDisplay:10.37,2013-07-12 10:26:00,
2013-07-12 05:31:00,63.0,59.4,29.98,NNE,12,0.0,0.0,88,0.00,CLR,,0.00,WeatherDisplay:10.37,2013-07-12 10:31:00,
2013-07-12 05:36:00,63.0,59.4,29.98,NNE,12,0.0,0.0,88,0.00,CLR,,0.00,WeatherDisplay:10.37,2013-07-12 10:36:00,
2013-07-12 05:41:00,63.0,59.4,29.98,NNE,12,0.0,0.0,88,0.00,CLR,,0.00,WeatherDisplay:10.37,2013-07-12 10:41:00,
2013-07-12 05:46:00,62.9,59.3,29.98,NNE,12,0.0,0.0,88,0.00,CLR,,0.00,WeatherDisplay:10.37,2013-07-12 10:46:00,
2013-07-12 05:51:00,62.9,59.3,29.98,NNE,12,0.0,0.0,88,0.00,CLR,,0.00,WeatherDisplay:10.37,2013-07-12 10:51:00,
2013-07-12 05:56:00,62.9,59.3,29.99,NNE,12,0.0,0.0,88,0.00,CLR,,0.00,WeatherDisplay:10.37,2013-07-12 10:56:00,
2013-07-12 06:01:00,62.9,59.3,29.99,NNE,12,0.0,0.0,88,0.00,CLR,,0.00,WeatherDisplay:10.37,2013-07-12 11:01:00,
2013-07-12 06:06:00,62.9,59.3,29.99,NNE,12,0.0,0.0,88,0.00,CLR,,0.00,WeatherDisplay:10.37,2013-07-12 11:06:00,
2013-07-12 06:11:00,62.9,59.3,29.99,NNE,12,0.0,0.0,88,0.00,CLR,,0.00,WeatherDisplay:10.37,2013-07-12 11:11:00,
2013-07-12 06:16:00,62.8,59.2,29.99,NNE,12,0.0,0.0,88,0.00,CLR,,0.00,WeatherDisplay:10.37,2013-07-12 11:16:00,
2013-07-12 06:21:00,62.8,59.5,29.99,NNE,12,0.0,0.0,89,0.00,CLR,,0.00,WeatherDisplay:10.37,2013-07-12 11:21:00,
2013-07-12 06:26:00,62.9,59.3,30.00,NNE,12,0.0,0.0,88,0.00,CLR,,0.00,WeatherDisplay:10.37,2013-07-12 11:26:00,
2013-07-12 06:31:00,62.9,59.3,30.00,NNE,12,0.0,0.0,88,0.00,CLR,,0.00,WeatherDisplay:10.37,2013-07-12 11:31:00,
2013-07-12 06:36:00,63.0,59.7,30.00,NNE,12,0.0,0.0,89,0.00,CLR,,0.00,WeatherDisplay:10.37,2013-07-12 11:36:00,
2013-07-12 06:41:00,63.2,59.6,30.00,NNE,12,0.0,0.0,88,0.00,CLR,,0.00,WeatherDisplay:10.37,2013-07-12 11:41:00,
2013-07-12 06:46:00,63.3,59.7,30.00,NNE,12,0.0,0.0,88,0.00,CLR,,0.00,WeatherDisplay:10.37,2013-07-12 11:46:00,
2013-07-12 06:51:00,63.5,59.9,30.00,NNE,12,0.0,0.0,88,0.00,CLR,,0.00,WeatherDisplay:10.37,2013-07-12 11:51:00,
2013-07-12 06:56:00,63.8,60.2,30.01,NNE,12,0.0,0.0,88,0.00,CLR,,0.00,WeatherDisplay:10.37,2013-07-12 11:56:00,
2013-07-12 07:01:00,64.2,60.6,30.01,NNE,12,0.0,0.0,88,0.00,CLR,,0.00,WeatherDisplay:10.37,2013-07-12 12:01:00,
2013-07-12 07:06:00,64.5,60.9,30.01,NNE,12,0.0,0.0,88,0.00,CLR,,0.00,WeatherDisplay:10.37,2013-07-12 12:06:00,
2013-07-12 07:11:00,64.8,60.8,30.01,NNE,12,0.0,0.0,87,0.00,CLR,,0.00,WeatherDisplay:10.37,2013-07-12 12:11:00,
2013-07-12 07:16:00,65.1,61.1,30.01,NNE,12,0.0,0.0,87,0.00,CLR,,0.00,WeatherDisplay:10.37,2013-07-12 12:16:00,
2013-07-12 07:21:00,65.4,61.1,30.01,NNE,12,0.0,0.0,86,0.00,CLR,,0.00,WeatherDisplay:10.37,2013-07-12 12:21:00,
2013-07-12 07:26:00,65.7,61.1,30.00,NNE,13,0.0,0.0,85,0.00,CLR,,0.00,WeatherDisplay:10.37,2013-07-12 12:26:00,
2013-07-12 07:31:00,65.9,61.3,30.01,NNE,13,0.0,0.0,85,0.00,CLR,,0.00,WeatherDisplay:10.37,2013-07-12 12:31:00,
2013-07-12 07:36:00,66.2,61.6,30.01,NNE,19,0.0,0.0,85,0.00,CLR,,0.00,WeatherDisplay:10.37,2013-07-12 12:36:00,
2013-07-12 07:41:00,66.6,61.6,30.01,NNE,22,0.0,0.0,84,0.00,CLR,,0.00,WeatherDisplay:10.37,2013-07-12 12:41:00,
2013-07-12 07:46:00,66.8,61.5,30.01,NNE,22,0.0,0.0,83,0.00,CLR,,0.00,WeatherDisplay:10.37,2013-07-12 12:46:00,
2013-07-12 07:51:00,67.2,61.9,30.01,NNE,22,0.0,0.0,83,0.00,CLR,,0.00,WeatherDisplay:10.37,2013-07-12 12:51:00,
2013-07-12 07:56:00,67.5,61.8,30.01,NNE,22,0.0,0.0,82,0.00,CLR,,0.00,WeatherDisplay:10.37,2013-07-12 12:56:00,
2013-07-12 08:01:00,67.8,62.1,30.01,NNE,22,0.0,0.0,82,0.00,CLR,,0.00,WeatherDisplay:10.37,2013-07-12 13:01:00,
2013-07-12 08:06:00,68.2,62.1,30.01,NNE,22,0.0,0.0,81,0.00,CLR,,0.00,WeatherDisplay:10.37,2013-07-12 13:06:00,
2013-07-12 08:11:00,68.6,62.2,30.01,NNE,22,0.0,0.0,80,0.00,CLR,,0.00,WeatherDisplay:10.37,2013-07-12 13:11:00,
2013-07-12 08:16:00,69.0,62.6,30.01,NNE,22,0.0,0.0,80,0.00,CLR,,0.00,WeatherDisplay:10.37,2013-07-12 13:16:00,
2013-07-12 08:21:00,69.3,62.5,30.01,NNE,22,0.0,0.0,79,0.00,CLR,,0.00,WeatherDisplay:10.37,2013-07-12 13:21:00,
2013-07-12 08:26:00,69.7,62.9,30.01,NNE,24,0.0,0.0,79,0.00,CLR,,0.00,WeatherDisplay:10.37,2013-07-12 13:26:00,
2013-07-12 08:31:00,70.0,62.1,30.01,NNE,24,0.0,0.0,76,0.00,CLR,,0.00,WeatherDisplay:10.37,2013-07-12 13:31:00,
2013-07-12 08:36:00,70.4,62.1,30.02,NE,40,0.0,0.1,75,0.00,CLR,,0.00,WeatherDisplay:10.37,2013-07-12 13:36:00,
2013-07-12 08:41:00,70.8,62.1,30.02,NE,34,0.0,0.0,74,0.00,CLR,,0.00,WeatherDisplay:10.37,2013-07-12 13:41:00,
2013-07-12 08:46:00,71.2,61.3,30.02,NE,34,1.1,1.1,71,0.00,CLR,,0.00,WeatherDisplay:10.37,2013-07-12 13:46:00,
2013-07-12 08:51:00,71.7,62.2,30.02,NNE,28,0.0,0.1,72,0.00,CLR,,0.00,WeatherDisplay:10.37,2013-07-12 13:51:00,
2013-07-12 08:56:00,72.1,61.4,30.02,NNE,30,2.3,2.3,69,0.00,CLR,,0.00,WeatherDisplay:10.37,2013-07-12 13:56:00,
2013-07-12 09:01:00,72.6,61.8,30.02,NE,54,0.0,0.0,69,0.00,CLR,,0.00,WeatherDisplay:10.37,2013-07-12 14:01:00,
2013-07-12 09:06:00,73.2,61.6,30.02,NE,53,0.0,0.0,67,0.00,CLR,,0.00,WeatherDisplay:10.37,2013-07-12 14:06:00,
2013-07-12 09:11:00,73.9,61.4,30.02,NE,48,1.1,0.0,65,0.00,CLR,,0.00,WeatherDisplay:10.37,2013-07-12 14:11:00,
2013-07-12 09:16:00,74.4,61.4,30.02,NNE,31,2.3,0.0,64,0.00,CLR,,0.00,WeatherDisplay:10.37,2013-07-12 14:16:00,
2013-07-12 09:21:00,74.6,60.3,30.02,NE,42,2.3,2.3,61,0.00,CLR,,0.00,WeatherDisplay:10.37,2013-07-12 14:21:00,
2013-07-12 09:26:00,74.9,61.5,30.01,NE,42,2.3,2.3,63,0.00,CLR,,0.00,WeatherDisplay:10.37,2013-07-12 14:26:00,
2013-07-12 09:31:00,75.3,60.9,30.01,NE,54,2.3,2.3,61,0.00,CLR,,0.00,WeatherDisplay:10.37,2013-07-12 14:31:00,
2013-07-12 09:37:00,75.5,61.1,30.02,NNE,26,0.0,0.0,61,0.00,CLR,,0.00,WeatherDisplay:10.37,2013-07-12 14:37:00,
2013-07-12 09:42:00,75.7,60.8,30.02,NE,41,1.1,1.1,60,0.00,CLR,,0.00,WeatherDisplay:10.37,2013-07-12 14:42:00,
2013-07-12 09:47:00,75.8,60.4,30.02,NE,46,2.3,2.3,59,0.00,CLR,,0.00,WeatherDisplay:10.37,2013-07-12 14:47:00,
2013-07-12 09:52:00,75.9,59.6,30.02,NE,34,2.3,2.3,57,0.00,CLR,,0.00,WeatherDisplay:10.37,2013-07-12 14:52:00,
2013-07-12 09:57:00,76.2,60.8,30.02,East,100,1.1,1.1,59,0.00,CLR,,0.00,WeatherDisplay:10.37,2013-07-12 14:57:00,
2013-07-12 10:02:00,76.6,60.7,30.01,East,98,1.1,0.0,58,0.00,CLR,,0.00,WeatherDisplay:10.37,2013-07-12 15:02:00,
2013-07-12 10:07:00,77.1,60.2,30.02,East,94,3.5,3.5,56,0.00,CLR,,0.00,WeatherDisplay:10.37,2013-07-12 15:07:00,
2013-07-12 10:12:00,77.2,60.3,30.02,NE,51,1.1,1.1,56,0.00,CLR,,0.00,WeatherDisplay:10.37,2013-07-12 15:12:00,
2013-07-12 10:17:00,77.4,61.0,30.02,NE,51,1.0,1.0,57,0.00,CLR,,0.00,WeatherDisplay:10.37,2013-07-12 15:17:00,
2013-07-12 10:22:00,77.6,62.1,30.02,NE,50,1.1,1.1,59,0.00,CLR,,0.00,WeatherDisplay:10.37,2013-07-12 15:22:00,
2013-07-12 10:27:00,77.9,61.9,30.01,NE,34,1.1,0.0,58,0.00,CLR,,0.00,WeatherDisplay:10.37,2013-07-12 15:27:00,
2013-07-12 10:32:00,78.4,62.4,30.01,East,88,1.1,0.0,58,0.00,CLR,,0.00,WeatherDisplay:10.37,2013-07-12 15:32:00,
2013-07-12 10:37:00,78.4,60.9,30.01,NNE,23,3.5,3.5,55,0.00,CLR,,0.00,WeatherDisplay:10.37,2013-07-12 15:37:00,
2013-07-12 10:42:00,78.1,61.1,30.01,NE,38,1.1,1.1,56,0.00,CLR,,0.00,WeatherDisplay:10.37,2013-07-12 15:42:00,
2013-07-12 10:47:00,78.0,62.0,30.01,NNE,22,1.1,1.1,58,0.00,CLR,,0.00,WeatherDisplay:10.37,2013-07-12 15:47:00,
2013-07-12 10:52:00,78.1,62.1,30.01,NNE,29,2.3,2.3,58,0.00,CLR,,0.00,WeatherDisplay:10.37,2013-07-12 15:52:00,
2013-07-12 10:57:00,78.2,61.2,30.01,NNE,21,2.3,2.3,56,0.00,CLR,,0.00,WeatherDisplay:10.37,2013-07-12 15:57:00,
2013-07-12 11:02:00,78.4,62.9,30.01,NE,37,0.0,0.0,59,0.00,CLR,,0.00,WeatherDisplay:10.37,2013-07-12 16:02:00,
2013-07-12 11:07:00,78.3,61.8,30.01,NE,39,1.1,1.1,57,0.00,CLR,,0.00,WeatherDisplay:10.37,2013-07-12 16:07:00,
2013-07-12 11:12:00,78.3,61.3,30.01,NE,39,3.5,3.5,56,0.00,CLR,,0.00,WeatherDisplay:10.37,2013-07-12 16:12:00,
2013-07-12 11:17:00,78.3,61.3,30.01,NE,40,2.3,2.3,56,0.00,CLR,,0.00,WeatherDisplay:10.37,2013-07-12 16:17:00,
2013-07-12 11:22:00,78.3,60.3,30.01,NE,42,1.1,1.1,54,0.00,CLR,,0.00,WeatherDisplay:10.37,2013-07-12 16:22:00,
2013-07-12 11:27:00,78.4,60.4,30.01,NE,37,2.3,2.3,54,0.00,CLR,,0.00,WeatherDisplay:10.37,2013-07-12 16:27:00,
2013-07-12 11:32:00,78.4,59.9,30.01,NNE,32,2.3,2.3,53,0.00,CLR,,0.00,WeatherDisplay:10.37,2013-07-12 16:32:00,
2013-07-12 11:37:00,78.5,59.4,30.01,NNE,28,3.5,3.5,52,0.00,CLR,,0.00,WeatherDisplay:10.37,2013-07-12 16:37:00,
2013-07-12 11:42:00,78.5,57.7,30.01,North,355,3.0,3.0,49,0.00,CLR,,0.00,WeatherDisplay:10.37,2013-07-12 16:42:00,
2013-07-12 11:47:00,78.7,58.5,30.01,NE,34,1.1,1.1,50,0.00,CLR,,0.00,WeatherDisplay:10.37,2013-07-12 16:47:00,
2013-07-12 11:52:00,78.9,57.5,30.01,NE,40,1.1,1.1,48,0.00,CLR,,0.00,WeatherDisplay:10.37,2013-07-12 16:52:00,
2013-07-12 11:57:00,79.1,58.3,30.01,NE,36,2.0,2.0,49,0.00,CLR,,0.00,WeatherDisplay:10.37,2013-07-12 16:57:00,
2013-07-12 12:02:00,79.4,60.8,30.01,ENE,60,1.1,1.1,53,0.00,CLR,,0.00,WeatherDisplay:10.37,2013-07-12 17:02:00,
2013-07-12 12:07:00,79.6,59.9,30.01,ENE,70,1.1,1.1,51,0.00,CLR,,0.00,WeatherDisplay:10.37,2013-07-12 17:07:00,
2013-07-12 12:12:00,79.8,58.4,30.01,East,87,2.3,2.3,48,0.00,CLR,,0.00,WeatherDisplay:10.37,2013-07-12 17:12:00,
2013-07-12 12:17:00,79.8,58.4,30.01,NNE,17,2.3,2.3,48,0.00,CLR,,0.00,WeatherDisplay:10.37,2013-07-12 17:17:00,
2013-07-12 12:22:00,79.7,57.7,30.01,ENE,57,1.1,1.1,47,0.00,CLR,,0.00,WeatherDisplay:10.37,2013-07-12 17:22:00,
2013-07-12 12:28:00,79.6,57.6,30.00,NNE,27,3.5,3.5,47,0.00,CLR,,0.00,WeatherDisplay:10.37,2013-07-12 17:28:00,
2013-07-12 12:33:00,79.8,58.4,30.00,NNE,33,3.5,3.5,48,0.00,CLR,,0.00,WeatherDisplay:10.37,2013-07-12 17:33:00,
2013-07-12 12:38:00,80.0,58.0,30.00,NE,56,3.5,3.5,47,0.00,CLR,,0.00,WeatherDisplay:10.37,2013-07-12 17:38:00,
2013-07-12 12:43:00,80.2,59.3,30.00,NE,53,1.1,1.1,49,0.00,CLR,,0.00,WeatherDisplay:10.37,2013-07-12 17:43:00,
2013-07-12 12:49:00,80.6,60.8,30.00,ESE,113,1.1,1.1,51,0.00,CLR,,0.00,WeatherDisplay:10.37,2013-07-12 17:49:00,
2013-07-12 12:54:00,81.2,59.6,30.00,North,5,2.3,2.3,48,0.00,CLR,,0.00,WeatherDisplay:10.37,2013-07-12 17:54:00,
2013-07-12 12:59:00,81.1,60.7,30.00,NNE,27,1.1,0.0,50,0.00,CLR,,0.00,WeatherDisplay:10.37,2013-07-12 17:59:00,
2013-07-12 13:04:00,81.3,59.1,30.00,North,9,2.3,2.3,47,0.00,CLR,,0.00,WeatherDisplay:10.37,2013-07-12 18:04:00,
2013-07-12 13:10:00,81.2,59.1,30.00,NE,44,0.0,1.0,47,0.00,CLR,,0.00,WeatherDisplay:10.37,2013-07-12 18:10:00,
2013-07-12 13:15:00,81.4,59.8,29.99,ENE,68,0.0,1.0,48,0.00,CLR,,0.00,WeatherDisplay:10.37,2013-07-12 18:15:00,
2013-07-12 13:20:00,81.5,59.9,30.00,ESE,102,2.0,2.0,48,0.00,CLR,,0.00,WeatherDisplay:10.37,2013-07-12 18:20:00,
2013-07-12 13:25:00,81.5,59.9,30.00,East,88,1.1,0.0,48,0.00,CLR,,0.00,WeatherDisplay:10.37,2013-07-12 18:25:00,
2013-07-12 13:30:00,81.5,59.3,29.99,NE,36,2.3,2.3,47,0.00,CLR,,0.00,WeatherDisplay:10.37,2013-07-12 18:30:00,
2013-07-12 13:35:00,81.1,59.6,30.00,NE,38,3.5,3.5,48,0.00,CLR,,0.00,WeatherDisplay:10.37,2013-07-12 18:35:00,
2013-07-12 13:40:00,80.8,59.3,30.00,NE,49,2.0,2.0,48,0.00,CLR,,0.00,WeatherDisplay:10.37,2013-07-12 18:40:00,
2013-07-12 13:45:00,80.9,59.9,29.99,NNE,25,1.1,1.1,49,0.00,CLR,,0.00,WeatherDisplay:10.37,2013-07-12 18:45:00,
2013-07-12 13:50:00,80.9,58.2,29.99,NE,38,3.5,3.5,46,0.00,CLR,,0.00,WeatherDisplay:10.37,2013-07-12 18:50:00,
2013-07-12 13:55:00,80.8,59.9,29.99,ENE,69,0.0,0.0,49,0.00,CLR,,0.00,WeatherDisplay:10.37,2013-07-12 18:55:00,
2013-07-12 14:01:00,81.2,60.2,29.99,NE,38,3.5,3.5,49,0.00,CLR,,0.00,WeatherDisplay:10.37,2013-07-12 19:01:00,
2013-07-12 14:06:00,81.2,60.2,29.99,NE,51,1.1,1.3,49,0.00,CLR,,0.00,WeatherDisplay:10.37,2013-07-12 19:06:00,
2013-07-12 14:11:00,81.3,59.1,29.99,NNE,20,2.3,2.3,47,0.00,CLR,,0.00,WeatherDisplay:10.37,2013-07-12 19:11:00,
2013-07-12 14:16:00,81.3,59.7,29.99,NNE,28,2.3,2.3,48,0.00,CLR,,0.00,WeatherDisplay:10.37,2013-07-12 19:16:00,
2013-07-12 14:21:00,81.4,59.8,29.99,North,350,1.1,1.1,48,0.00,CLR,,0.00,WeatherDisplay:10.37,2013-07-12 19:21:00,
2013-07-12 14:26:00,81.7,60.7,29.99,North,355,1.1,1.1,49,0.00,CLR,,0.00,WeatherDisplay:10.37,2013-07-12 19:26:00,
2013-07-12 14:32:00,81.2,59.1,29.99,NNE,13,2.3,2.3,47,0.00,CLR,,0.00,WeatherDisplay:10.37,2013-07-12 19:32:00,
2013-07-12 14:37:00,81.0,59.5,29.98,NE,34,3.5,3.5,48,0.00,CLR,,0.00,WeatherDisplay:10.37,2013-07-12 19:37:00,
2013-07-12 14:42:00,81.0,60.0,29.99,NNE,26,2.3,0.0,49,0.00,CLR,,0.00,WeatherDisplay:10.37,2013-07-12 19:42:00,
2013-07-12 14:48:00,81.4,59.8,29.99,NNE,25,2.3,2.3,48,0.00,CLR,,0.00,WeatherDisplay:10.37,2013-07-12 19:48:00,
2013-07-12 14:53:00,81.6,60.0,29.99,ENE,69,1.1,1.1,48,0.00,CLR,,0.00,WeatherDisplay:10.37,2013-07-12 19:53:00,
2013-07-12 14:58:00,82.0,61.5,29.98,NE,38,2.3,2.3,50,0.00,CLR,,0.00,WeatherDisplay:10.37,2013-07-12 19:58:00,
2013-07-12 15:03:00,82.2,61.1,29.98,ENE,57,2.3,2.3,49,0.00,CLR,,0.00,WeatherDisplay:10.37,2013-07-12 20:03:00,
2013-07-12 15:08:00,82.0,58.6,29.99,North,5,3.5,3.5,45,0.00,CLR,,0.00,WeatherDisplay:10.37,2013-07-12 20:08:00,
2013-07-12 15:14:00,81.7,59.5,29.99,NNE,22,3.5,3.5,47,0.00,CLR,,0.00,WeatherDisplay:10.37,2013-07-12 20:14:00,
2013-07-12 15:19:00,81.7,59.5,29.98,North,5,3.5,3.5,47,0.00,CLR,,0.00,WeatherDisplay:10.37,2013-07-12 20:19:00,
2013-07-12 15:24:00,82.0,60.4,29.98,NNE,19,3.5,3.5,48,0.00,CLR,,0.00,WeatherDisplay:10.37,2013-07-12 20:24:00,
2013-07-12 15:29:00,82.0,59.8,29.98,North,355,3.5,3.5,47,0.00,CLR,,0.00,WeatherDisplay:10.37,2013-07-12 20:29:00,
2013-07-12 15:34:00,82.3,60.1,29.97,ENE,57,0.0,0.1,47,0.00,CLR,,0.00,WeatherDisplay:10.37,2013-07-12 20:34:00,
2013-07-12 15:39:00,82.7,61.6,29.97,NE,42,3.5,3.5,49,0.00,CLR,,0.00,WeatherDisplay:10.37,2013-07-12 20:39:00,
2013-07-12 15:45:00,82.7,60.4,29.97,NE,36,3.5,3.5,47,0.00,CLR,,0.00,WeatherDisplay:10.37,2013-07-12 20:45:00,
2013-07-12 15:50:00,82.5,60.8,29.97,NNE,31,2.3,2.3,48,0.00,CLR,,0.00,WeatherDisplay:10.37,2013-07-12 20:50:00,
2013-07-12 15:55:00,82.4,60.7,29.96,NNE,15,0.0,4.0,48,0.00,CLR,,0.00,WeatherDisplay:10.37,2013-07-12 20:55:00,
2013-07-12 16:00:00,82.5,62.0,29.96,NE,53,1.1,1.1,50,0.00,CLR,,0.00,WeatherDisplay:10.37,2013-07-12 21:00:00,
2013-07-12 16:05:00,82.5,60.8,29.96,ENE,58,1.1,1.1,48,0.00,CLR,,0.00,WeatherDisplay:10.37,2013-07-12 21:05:00,
2013-07-12 16:10:00,82.5,62.0,29.96,NE,41,1.1,0.0,50,0.00,CLR,,0.00,WeatherDisplay:10.37,2013-07-12 21:10:00,
2013-07-12 16:15:00,82.5,61.4,29.96,North,355,2.3,0.0,49,0.00,CLR,,0.00,WeatherDisplay:10.37,2013-07-12 21:15:00,
2013-07-12 16:21:00,82.4,60.7,29.96,NNE,33,3.5,3.5,48,0.00,CLR,,0.00,WeatherDisplay:10.37,2013-07-12 21:21:00,
2013-07-12 16:26:00,82.1,61.0,29.96,NNE,24,1.1,1.1,49,0.00,CLR,,0.00,WeatherDisplay:10.37,2013-07-12 21:26:00,
2013-07-12 16:31:00,82.0,61.5,29.96,NE,40,3.5,3.5,50,0.00,CLR,,0.00,WeatherDisplay:10.37,2013-07-12 21:31:00,
2013-07-12 16:36:00,82.1,61.6,29.96,ENE,77,1.1,0.0,50,0.00,CLR,,0.00,WeatherDisplay:10.37,2013-07-12 21:36:00,
2013-07-12 16:41:00,82.3,61.8,29.96,East,85,0.0,0.0,50,0.00,CLR,,0.00,WeatherDisplay:10.37,2013-07-12 21:41:00,
2013-07-12 16:46:00,82.5,63.1,29.96,NE,39,1.0,1.0,52,0.00,CLR,,0.00,WeatherDisplay:10.37,2013-07-12 21:46:00,
2013-07-12 16:51:00,82.4,60.7,29.96,NE,52,3.5,3.5,48,0.00,CLR,,0.00,WeatherDisplay:10.37,2013-07-12 21:51:00,
2013-07-12 16:56:00,82.0,61.0,29.96,ENE,74,1.1,1.1,49,0.00,CLR,,0.00,WeatherDisplay:10.37,2013-07-12 21:56:00,
2013-07-12 17:01:00,82.0,62.1,29.96,NNE,33,2.3,2.3,51,0.00,CLR,,0.00,WeatherDisplay:10.37,2013-07-12 22:01:00,
2013-07-12 17:06:00,82.1,61.0,29.96,North,5,1.1,1.1,49,0.00,CLR,,0.00,WeatherDisplay:10.37,2013-07-12 22:06:00,
2013-07-12 17:11:00,82.1,61.0,29.96,NNE,29,2.3,2.3,49,0.00,CLR,,0.00,WeatherDisplay:10.37,2013-07-12 22:11:00,
2013-07-12 17:17:00,82.0,60.4,29.96,NNE,22,1.1,1.1,48,0.00,CLR,,0.00,WeatherDisplay:10.37,2013-07-12 22:17:00,
2013-07-12 17:22:00,82.0,61.0,29.95,NE,34,2.3,0.0,49,0.00,CLR,,0.00,WeatherDisplay:10.37,2013-07-12 22:22:00,
2013-07-12 17:27:00,82.0,61.0,29.96,NE,40,2.3,2.3,49,0.00,CLR,,0.00,WeatherDisplay:10.37,2013-07-12 22:27:00,
2013-07-12 17:32:00,82.0,61.5,29.95,NNE,30,1.1,1.1,50,0.00,CLR,,0.00,WeatherDisplay:10.37,2013-07-12 22:32:00,
2013-07-12 17:37:00,82.1,61.6,29.95,NE,36,2.0,2.0,50,0.00,CLR,,0.00,WeatherDisplay:10.37,2013-07-12 22:37:00,
2013-07-12 17:42:00,82.1,61.6,29.95,NNE,28,0.0,0.0,50,0.00,CLR,,0.00,WeatherDisplay:10.37,2013-07-12 22:42:00,
2013-07-12 17:47:00,82.0,61.0,29.95,NE,38,1.1,0.0,49,0.00,CLR,,0.00,WeatherDisplay:10.37,2013-07-12 22:47:00,
2013-07-12 17:53:00,82.0,61.5,29.95,NE,35,2.3,2.3,50,0.00,CLR,,0.00,WeatherDisplay:10.37,2013-07-12 22:53:00,
2013-07-12 17:58:00,82.0,61.5,29.95,ENE,78,1.1,1.1,50,0.00,CLR,,0.00,WeatherDisplay:10.37,2013-07-12 22:58:00,
2013-07-12 18:03:00,81.9,61.4,29.95,NNE,32,1.1,1.1,50,0.00,CLR,,0.00,WeatherDisplay:10.37,2013-07-12 23:03:00,
2013-07-12 18:08:00,81.7,61.2,29.95,NNE,31,2.3,2.3,50,0.00,CLR,,0.00,WeatherDisplay:10.37,2013-07-12 23:08:00,
2013-07-12 18:13:00,81.6,61.7,29.95,NNE,31,1.1,1.1,51,0.00,CLR,,0.00,WeatherDisplay:10.37,2013-07-12 23:13:00,
2013-07-12 18:18:00,81.6,61.7,29.95,NNE,33,1.1,0.0,51,0.00,CLR,,0.00,WeatherDisplay:10.37,2013-07-12 23:18:00,
2013-07-12 18:23:00,81.6,62.3,29.95,NNE,33,1.0,0.0,52,0.00,CLR,,0.00,WeatherDisplay:10.37,2013-07-12 23:23:00,
2013-07-12 18:28:00,81.5,61.6,29.95,NE,42,1.1,0.0,51,0.00,CLR,,0.00,WeatherDisplay:10.37,2013-07-12 23:28:00,
2013-07-12 18:34:00,81.5,62.7,29.95,NE,42,0.0,0.0,53,0.00,CLR,,0.00,WeatherDisplay:10.37,2013-07-12 23:34:00,
2013-07-12 18:39:00,81.6,63.3,29.95,NE,42,0.0,0.0,54,0.00,CLR,,0.00,WeatherDisplay:10.37,2013-07-12 23:39:00,
2013-07-12 18:44:00,81.4,62.1,29.95,NE,41,1.1,0.0,52,0.00,CLR,,0.00,WeatherDisplay:10.37,2013-07-12 23:44:00,
2013-07-12 18:49:00,81.4,62.1,29.95,NE,41,0.0,0.0,52,0.00,CLR,,0.00,WeatherDisplay:10.37,2013-07-12 23:49:00,
2013-07-12 18:54:00,81.3,62.0,29.95,NE,41,0.0,0.0,52,0.00,CLR,,0.00,WeatherDisplay:10.37,2013-07-12 23:54:00,
2013-07-12 18:59:00,81.2,62.4,29.95,NE,38,0.0,0.0,53,0.00,CLR,,0.00,WeatherDisplay:10.37,2013-07-12 23:59:00,
2013-07-12 19:04:00,81.0,62.3,29.95,NE,38,0.0,0.0,53,0.00,CLR,,0.00,WeatherDisplay:10.37,2013-07-13 00:04:00,
2013-07-12 19:09:00,80.7,62.5,29.95,NE,38,0.0,0.0,54,0.00,CLR,,0.00,WeatherDisplay:10.37,2013-07-13 00:09:00,
2013-07-12 19:14:00,80.4,62.2,29.95,NE,38,0.0,0.0,54,0.00,CLR,,0.00,WeatherDisplay:10.37,2013-07-13 00:14:00,
2013-07-12 19:19:00,80.2,62.0,29.95,NE,38,0.0,0.0,54,0.00,CLR,,0.00,WeatherDisplay:10.37,2013-07-13 00:19:00,
2013-07-12 19:24:00,80.0,61.9,29.95,NE,38,0.0,0.0,54,0.00,CLR,,0.00,WeatherDisplay:10.37,2013-07-13 00:24:00,
2013-07-12 19:29:00,79.7,62.1,29.95,NE,38,0.0,0.0,55,0.00,CLR,,0.00,WeatherDisplay:10.37,2013-07-13 00:29:00,
2013-07-12 19:35:00,79.5,61.9,29.95,NE,38,0.0,0.0,55,0.00,CLR,,0.00,WeatherDisplay:10.37,2013-07-13 00:35:00,
2013-07-12 19:40:00,79.3,62.7,29.95,NE,38,0.0,0.0,57,0.00,CLR,,0.00,WeatherDisplay:10.37,2013-07-13 00:40:00,
2013-07-12 19:45:00,79.1,63.1,29.95,NE,38,0.0,0.0,58,0.00,CLR,,0.00,WeatherDisplay:10.37,2013-07-13 00:45:00,
2013-07-12 19:50:00,79.1,64.0,29.95,NE,38,0.0,0.0,60,0.00,CLR,,0.00,WeatherDisplay:10.37,2013-07-13 00:50:00,
2013-07-12 19:55:00,78.8,63.3,29.95,NE,38,0.0,0.0,59,0.00,CLR,,0.00,WeatherDisplay:10.37,2013-07-13 00:55:00,
2013-07-12 20:00:00,78.5,63.9,29.95,NE,38,0.0,0.0,61,0.00,CLR,,0.00,WeatherDisplay:10.37,2013-07-13 01:00:00,
2013-07-12 20:05:00,77.9,63.8,29.95,NE,38,0.0,0.0,62,0.00,CLR,,0.00,WeatherDisplay:10.37,2013-07-13 01:05:00,
2013-07-12 20:10:00,77.4,63.8,29.95,NE,38,0.0,0.0,63,0.00,CLR,,0.00,WeatherDisplay:10.37,2013-07-13 01:10:00,
2013-07-12 20:15:00,76.7,64.0,29.95,NE,38,0.0,0.0,65,0.00,CLR,,0.00,WeatherDisplay:10.37,2013-07-13 01:15:00,
2013-07-12 20:20:00,76.2,64.4,29.95,NE,38,0.0,0.0,67,0.00,CLR,,0.00,WeatherDisplay:10.37,2013-07-13 01:20:00,
2013-07-12 20:25:00,75.6,63.9,29.95,NE,38,0.0,0.0,67,0.00,CLR,,0.00,WeatherDisplay:10.37,2013-07-13 01:25:00,
2013-07-12 20:31:00,75.1,64.2,29.95,NE,38,0.0,0.0,69,0.00,CLR,,0.00,WeatherDisplay:10.37,2013-07-13 01:31:00,
2013-07-12 20:36:00,74.5,64.1,29.95,NE,38,0.0,0.0,70,0.00,CLR,,0.00,WeatherDisplay:10.37,2013-07-13 01:36:00,
2013-07-12 20:41:00,73.8,63.8,29.95,NE,38,0.0,0.0,71,0.00,CLR,,0.00,WeatherDisplay:10.37,2013-07-13 01:41:00,
2013-07-12 20:46:00,73.1,63.5,29.95,NE,38,0.0,0.0,72,0.00,CLR,,0.00,WeatherDisplay:10.37,2013-07-13 01:46:00,
2013-07-12 20:51:00,72.6,63.4,29.96,NE,38,0.0,0.0,73,0.00,CLR,,0.00,WeatherDisplay:10.37,2013-07-13 01:51:00,
2013-07-12 20:56:00,72.2,63.8,29.96,NE,38,0.0,0.0,75,0.00,CLR,,0.00,WeatherDisplay:10.37,2013-07-13 01:56:00,
2013-07-12 21:01:00,71.7,63.7,29.95,NE,38,0.0,0.0,76,0.00,CLR,,0.00,WeatherDisplay:10.37,2013-07-13 02:01:00,
2013-07-12 21:07:00,71.2,63.6,29.96,NE,38,0.0,0.0,77,0.00,CLR,,0.00,WeatherDisplay:10.37,2013-07-13 02:07:00,
2013-07-12 21:12:00,70.7,63.1,29.96,NE,38,0.0,0.0,77,0.00,CLR,,0.00,WeatherDisplay:10.37,2013-07-13 02:12:00,
2013-07-12 21:17:00,70.1,63.3,29.96,NE,38,0.0,0.0,79,0.00,CLR,,0.00,WeatherDisplay:10.37,2013-07-13 02:17:00,
2013-07-12 21:22:00,69.6,63.2,29.96,NE,38,0.0,0.0,80,0.00,CLR,,0.00,WeatherDisplay:10.37,2013-07-13 02:22:00,
2013-07-12 21:27:00,69.2,62.8,29.96,NE,38,0.0,0.0,80,0.00,CLR,,0.00,WeatherDisplay:10.37,2013-07-13 02:27:00,
2013-07-12 21:32:00,69.1,63.4,29.96,NE,38,0.0,0.0,82,0.00,CLR,,0.00,WeatherDisplay:10.37,2013-07-13 02:32:00,
2013-07-12 21:37:00,68.8,63.1,29.96,NE,38,0.0,0.0,82,0.00,CLR,,0.00,WeatherDisplay:10.37,2013-07-13 02:37:00,
2013-07-12 21:42:00,68.6,62.9,29.97,NE,38,0.0,0.0,82,0.00,CLR,,0.00,WeatherDisplay:10.37,2013-07-13 02:42:00,
2013-07-12 21:48:00,68.4,63.0,29.97,NE,38,0.0,0.0,83,0.00,CLR,,0.00,WeatherDisplay:10.37,2013-07-13 02:48:00,
2013-07-12 21:53:00,68.2,62.8,29.97,NE,38,0.0,0.0,83,0.00,CLR,,0.00,WeatherDisplay:10.37,2013-07-13 02:53:00,
2013-07-12 21:58:00,67.9,62.5,29.97,NE,38,0.0,0.0,83,0.00,CLR,,0.00,WeatherDisplay:10.37,2013-07-13 02:58:00,
2013-07-12 22:04:00,67.7,62.3,29.97,NE,38,0.0,0.0,83,0.00,CLR,,0.00,WeatherDisplay:10.37,2013-07-13 03:04:00,
2013-07-12 22:09:00,67.7,62.7,29.97,NE,38,0.0,0.0,84,0.00,CLR,,0.00,WeatherDisplay:10.37,2013-07-13 03:09:00,
2013-07-12 22:14:00,67.8,62.4,29.97,NE,38,0.0,0.0,83,0.00,CLR,,0.00,WeatherDisplay:10.37,2013-07-13 03:14:00,
2013-07-12 22:19:00,68.0,62.3,29.97,NE,38,0.0,0.0,82,0.00,CLR,,0.00,WeatherDisplay:10.37,2013-07-13 03:19:00,
2013-07-12 22:24:00,68.2,62.8,29.97,NE,38,0.0,0.0,83,0.00,CLR,,0.00,WeatherDisplay:10.37,2013-07-13 03:24:00,
2013-07-12 22:29:00,68.4,62.7,29.97,NE,38,0.0,0.0,82,0.00,CLR,,0.00,WeatherDisplay:10.37,2013-07-13 03:29:00,
2013-07-12 22:35:00,68.5,62.4,29.98,NE,38,0.0,0.0,81,0.00,CLR,,0.00,WeatherDisplay:10.37,2013-07-13 03:35:00,
2013-07-12 22:40:00,68.5,62.8,29.97,NE,38,0.0,0.0,82,0.00,CLR,,0.00,WeatherDisplay:10.37,2013-07-13 03:40:00,
2013-07-12 22:45:00,68.6,62.5,29.98,NE,38,0.0,0.0,81,0.00,CLR,,0.00,WeatherDisplay:10.37,2013-07-13 03:45:00,
2013-07-12 22:50:00,68.7,63.0,29.98,NE,38,0.0,0.0,82,0.00,CLR,,0.00,WeatherDisplay:10.37,2013-07-13 03:50:00,
2013-07-12 22:55:00,68.6,62.9,29.98,NE,38,0.0,0.0,82,0.00,CLR,,0.00,WeatherDisplay:10.37,2013-07-13 03:55:00,
2013-07-12 23:01:00,68.4,62.7,29.97,NE,38,0.0,0.0,82,0.00,CLR,,0.00,WeatherDisplay:10.37,2013-07-13 04:01:00,
2013-07-12 23:02:00,68.4,62.7,29.97,NE,38,0.0,0.0,82,0.00,CLR,,0.00,WeatherDisplay:10.37,2013-07-13 04:02:00,
2013-07-12 23:07:00,68.3,62.9,29.97,NE,38,0.0,0.0,83,0.00,CLR,,0.00,WeatherDisplay:10.37,2013-07-13 04:07:00,
2013-07-12 23:12:00,68.2,62.8,29.97,NE,38,0.0,0.0,83,0.00,CLR,,0.00,WeatherDisplay:10.37,2013-07-13 04:12:00,
2013-07-12 23:17:00,67.9,62.5,29.97,NE,38,0.0,0.0,83,0.00,CLR,,0.00,WeatherDisplay:10.37,2013-07-13 04:17:00,
2013-07-12 23:22:00,67.6,62.3,29.98,NE,38,0.0,0.0,83,0.00,CLR,,0.00,WeatherDisplay:10.37,2013-07-13 04:22:00,
2013-07-12 23:27:00,67.5,62.5,29.98,NE,38,0.0,0.0,84,0.00,CLR,,0.00,WeatherDisplay:10.37,2013-07-13 04:27:00,
2013-07-12 23:32:00,67.1,61.8,29.98,NE,38,0.0,0.0,83,0.00,CLR,,0.00,WeatherDisplay:10.37,2013-07-13 04:32:00,
2013-07-12 23:37:00,66.7,61.4,29.98,NE,38,0.0,0.0,83,0.00,CLR,,0.00,WeatherDisplay:10.37,2013-07-13 04:37:00,
2013-07-12 23:42:00,66.4,61.4,29.98,NE,38,0.0,0.0,84,0.00,CLR,,0.00,WeatherDisplay:10.37,2013-07-13 04:42:00,
2013-07-12 23:47:00,66.0,61.0,29.98,NE,38,0.0,0.0,84,0.00,CLR,,0.00,WeatherDisplay:10.37,2013-07-13 04:47:00,
2013-07-12 23:52:00,65.8,60.8,29.98,NE,38,0.0,0.0,84,0.00,CLR,,0.00,WeatherDisplay:10.37,2013-07-13 04:52:00,
2013-07-12 23:58:00,65.6,61.0,29.98,NE,38,0.0,0.0,85,0.00,CLR,,0.00,WeatherDisplay:10.37,2013-07-13 04:58:00,